Time;durP1;ratioP1;P1;durP2;ratioP2;P2;SDS_P1;SDS_P2;PMS_P1;PMS_P2;Temp;Humidity;BMP_temperature;BMP_pressure;BME280_temperature;BME280_humidity;BME280_pressure;Samples;Min_cycle;Max_cycle;Signal;HPM_P1;HPM_P2
2022/04/14 00:02:15;;;;;;;0.00;0.00;;;;;;;15.39;68.33;101956.72;10443523;28;20512;-83
2022/04/14 00:07:17;;;;;;;0.00;0.00;;;;;;;15.49;67.24;101944.81;10412880;28;20101;-83
2022/04/14 00:12:19;;;;;;;0.00;0.00;;;;;;;15.71;67.00;101942.69;10414529;28;20072;-84
2022/04/14 00:17:20;;;;;;;0.00;0.00;;;;;;;15.28;68.20;101937.41;10436061;28;20049;-83
2022/04/14 00:22:22;;;;;;;0.00;0.00;;;;;;;15.20;69.22;101944.16;10451960;28;20053;-83
2022/04/14 00:27:24;;;;;;;0.00;0.00;;;;;;;15.53;66.81;101940.56;10452602;28;20480;-83
2022/04/14 00:32:25;;;;;;;0.00;0.00;;;;;;;15.42;67.80;101929.94;10435120;28;20052;-83
2022/04/14 00:37:27;;;;;;;0.03;0.03;;;;;;;14.86;69.06;101928.66;10451585;28;20147;-83
2022/04/14 00:42:29;;;;;;;0.00;0.00;;;;;;;14.46;70.71;101927.63;10435091;28;20042;-83
2022/04/14 00:47:31;;;;;;;0.17;0.17;;;;;;;14.15;72.58;101929.38;10411420;28;20038;-83
2022/04/14 00:52:42;;;;;;;0.57;0.55;;;;;;;13.73;75.61;101924.75;10410809;28;20488;-83
2022/04/14 00:57:44;;;;;;;0.73;0.73;;;;;;;14.12;73.44;101926.69;10409820;28;20532;-84
2022/04/14 01:02:46;;;;;;;0.43;0.43;;;;;;;14.10;73.11;101928.38;10433951;28;20088;-83
2022/04/14 01:07:49;;;;;;;0.00;0.00;;;;;;;14.10;72.82;101925.78;10451756;28;20083;-84
2022/04/14 01:12:50;;;;;;;0.10;0.10;;;;;;;14.04;74.04;101936.84;10442150;28;20467;-84
2022/04/14 01:17:52;;;;;;;0.00;0.00;;;;;;;14.41;72.50;101926.59;10409368;28;20072;-84
2022/04/14 01:22:58;;;;;;;0.00;0.00;;;;;;;14.34;72.34;101917.78;10408919;28;20058;-84
2022/04/14 01:28:04;;;;;;;0.15;0.15;;;;;;;13.96;71.78;101915.91;10395831;28;20092;-82
2022/04/14 01:33:06;;;;;;;0.20;0.20;;;;;;;13.59;74.60;101924.31;10415537;28;20053;-82
2022/04/14 01:38:07;;;;;;;0.10;0.10;;;;;;;14.01;73.45;101922.94;10414626;28;20048;-82
2022/04/14 01:43:09;;;;;;;0.00;0.00;;;;;;;14.96;68.16;101918.50;10414355;28;20049;-82
2022/04/14 01:48:11;;;;;;;0.00;0.00;;;;;;;14.79;68.00;101915.50;10415234;28;20091;-82
2022/04/14 01:53:12;;;;;;;0.63;0.55;;;;;;;14.28;70.66;101923.69;10414430;28;20053;-82
2022/04/14 01:58:14;;;;;;;0.00;0.00;;;;;;;14.83;68.56;101922.50;10414881;28;20128;-82
2022/04/14 02:03:16;;;;;;;0.05;0.05;;;;;;;14.55;68.95;101922.69;10417260;28;20398;-82
2022/04/14 02:08:17;;;;;;;0.00;0.00;;;;;;;14.56;69.24;101916.63;10414554;28;20046;-82
2022/04/14 02:13:19;;;;;;;0.00;0.00;;;;;;;13.98;69.94;101933.19;10414496;28;20443;-82
2022/04/14 02:18:20;;;;;;;0.00;0.00;;;;;;;14.21;68.87;101929.53;10413861;28;20052;-82
2022/04/14 02:23:23;;;;;;;0.00;0.00;;;;;;;14.53;68.65;101921.75;10416691;28;20128;-82
2022/04/14 02:28:24;;;;;;;0.00;0.00;;;;;;;13.72;71.67;101943.69;10415040;28;20045;-82
2022/04/14 02:33:26;;;;;;;0.00;0.00;;;;;;;14.00;71.08;101937.59;10414197;28;20493;-82
2022/04/14 02:38:28;;;;;;;0.00;0.00;;;;;;;13.76;70.49;101942.94;10416326;28;20512;-82
2022/04/14 02:43:29;;;;;;;0.00;0.00;;;;;;;13.53;73.44;101934.50;10416476;28;20037;-82
2022/04/14 02:48:31;;;;;;;0.00;0.00;;;;;;;13.90;69.65;101933.84;10397093;28;20057;-82
2022/04/14 02:53:33;;;;;;;0.00;0.00;;;;;;;13.19;74.75;101939.47;10398606;28;20094;-82
2022/04/14 02:58:37;;;;;;;0.00;0.00;;;;;;;12.86;73.77;101945.31;10416541;28;20068;-82
2022/04/14 03:03:38;;;;;;;0.05;0.05;;;;;;;12.72;73.43;101946.56;10424334;28;20041;-82
2022/04/14 03:08:41;;;;;;;0.00;0.00;;;;;;;12.64;74.95;101954.94;10425304;28;20042;-82
2022/04/14 03:13:43;;;;;;;0.00;0.00;;;;;;;12.85;73.57;101948.72;10420740;28;20045;-82
2022/04/14 03:18:45;;;;;;;0.35;0.35;;;;;;;12.52;73.40;101949.34;10420016;28;20049;-82
2022/04/14 03:23:46;;;;;;;0.15;0.15;;;;;;;12.66;74.47;101948.13;10419908;28;20489;-82
2022/04/14 03:28:48;;;;;;;0.00;0.00;;;;;;;12.77;75.70;101950.19;10403227;28;20044;-82
2022/04/14 03:33:50;;;;;;;0.05;0.05;;;;;;;12.65;74.20;101948.94;10402999;28;20544;-82
2022/04/14 03:38:51;;;;;;;0.77;0.68;;;;;;;12.46;74.42;101944.84;10419269;28;20041;-82
2022/04/14 03:43:53;;;;;;;0.80;0.80;;;;;;;12.63;73.97;101952.31;10402292;28;20041;-82
2022/04/14 03:48:58;;;;;;;0.00;0.00;;;;;;;13.18;73.35;101948.06;10418726;28;20072;-82
2022/04/14 03:54:00;;;;;;;0.00;0.00;;;;;;;12.98;73.93;101950.91;10419875;28;20136;-82
2022/04/14 03:59:01;;;;;;;0.05;0.05;;;;;;;12.88;73.40;101947.97;10404290;28;20050;-82
2022/04/14 04:04:03;;;;;;;0.03;0.03;;;;;;;13.40;70.43;101948.78;10402244;28;20053;-82
2022/04/14 04:09:05;;;;;;;0.00;0.00;;;;;;;12.72;74.08;101944.88;10417584;28;20084;-82
2022/04/14 04:14:06;;;;;;;0.00;0.00;;;;;;;12.84;71.62;101952.16;10417802;28;20053;-82
2022/04/14 04:19:08;;;;;;;0.00;0.00;;;;;;;12.75;71.37;101944.94;10418878;28;20087;-82
2022/04/14 04:24:09;;;;;;;0.00;0.00;;;;;;;12.92;69.49;101953.25;10417330;28;20046;-82
2022/04/14 04:29:11;;;;;;;0.00;0.00;;;;;;;12.68;70.92;101951.63;10400805;28;20496;-82
2022/04/14 04:34:13;;;;;;;0.00;0.00;;;;;;;13.15;69.55;101953.13;10400642;28;20049;-82
2022/04/14 04:39:15;;;;;;;0.00;0.00;;;;;;;13.09;69.22;101968.47;10418376;28;20400;-81
2022/04/14 04:44:16;;;;;;;0.00;0.00;;;;;;;12.79;69.91;101974.38;10417078;28;20163;-82
2022/04/14 04:49:18;;;;;;;0.00;0.00;;;;;;;12.74;69.48;101975.94;10416375;28;20049;-81
2022/04/14 04:54:19;;;;;;;0.00;0.00;;;;;;;12.34;71.78;101978.88;10417395;28;20045;-82
2022/04/14 04:59:21;;;;;;;0.00;0.00;;;;;;;12.64;70.82;101985.94;10417186;28;20049;-82
2022/04/14 05:04:22;;;;;;;6.28;2.40;;;;;;;12.55;69.76;101993.38;10399382;28;20183;-81
2022/04/14 05:09:24;;;;;;;0.00;0.00;;;;;;;12.65;69.88;101992.03;10416842;28;20056;-81
2022/04/14 05:14:26;;;;;;;0.00;0.00;;;;;;;12.24;72.41;101983.66;10415584;28;20086;-81
2022/04/14 05:19:28;;;;;;;0.00;0.00;;;;;;;12.25;72.43;101991.44;10415741;28;20049;-81
2022/04/14 05:24:30;;;;;;;0.00;0.00;;;;;;;12.44;72.38;101992.13;10414272;28;20439;-81
2022/04/14 05:29:35;;;;;;;0.00;0.00;;;;;;;12.43;71.76;102008.47;10416148;28;20099;-82
2022/04/14 05:34:36;;;;;;;0.00;0.00;;;;;;;12.30;72.89;102009.72;10398324;28;20049;-81
2022/04/14 05:39:38;;;;;;;0.00;0.00;;;;;;;11.86;73.95;102014.97;10398138;28;20045;-81
2022/04/14 05:44:41;;;;;;;0.00;0.00;;;;;;;12.45;71.37;102014.56;10398109;28;20052;-81
2022/04/14 05:49:42;;;;;;;0.00;0.00;;;;;;;12.21;72.38;102016.28;10397842;28;20045;-81
2022/04/14 05:54:48;;;;;;;0.00;0.00;;;;;;;12.17;71.19;102014.44;10418822;28;20048;-81
2022/04/14 05:59:49;;;;;;;0.00;0.00;;;;;;;11.08;75.79;102019.63;10455901;28;20072;-81
2022/04/14 06:04:52;;;;;;;3.10;2.17;;;;;;;10.79;77.00;102023.56;10438682;28;20033;-81
2022/04/14 06:09:54;;;;;;;0.47;0.43;;;;;;;11.05;76.23;102021.19;10456446;28;20451;-81
2022/04/14 06:14:55;;;;;;;0.00;0.00;;;;;;;11.35;75.69;102023.28;10456365;28;20437;-81
2022/04/14 06:19:57;;;;;;;0.00;0.00;;;;;;;11.93;74.08;102032.44;10456196;28;20131;-80
2022/04/14 06:24:58;;;;;;;2.53;0.70;;;;;;;11.49;76.12;102029.88;10454559;28;20052;-81
2022/04/14 06:30:00;;;;;;;0.08;0.08;;;;;;;11.87;77.13;102035.66;10454798;28;20040;-81
2022/04/14 06:35:07;;;;;;;3.08;1.92;;;;;;;11.45;78.49;102046.06;10459920;28;20044;-82
2022/04/14 06:40:09;;;;;;;0.00;0.00;;;;;;;12.30;77.27;102040.72;10463293;28;20041;-81
2022/04/14 06:45:31;;;;;;;0.43;0.43;;;;;;;12.56;77.08;102040.81;10448499;28;20044;-81
2022/04/14 06:50:33;;;;;;;4.22;2.88;;;;;;;12.22;77.73;102043.91;10445765;28;20080;-82
2022/04/14 06:55:36;;;;;;;5.07;2.60;;;;;;;12.51;78.64;102046.66;10445645;28;20053;-82
2022/04/14 07:00:38;;;;;;;7.72;3.35;;;;;;;12.98;78.27;102054.38;10463999;28;20053;-83
2022/04/14 07:05:39;;;;;;;27.92;11.02;;;;;;;12.74;78.47;102038.84;10462700;28;20049;-81
2022/04/14 07:10:41;;;;;;;3.50;1.83;;;;;;;14.27;73.74;102046.34;10461874;28;20083;-82
2022/04/14 07:15:45;;;;;;;2.13;0.60;;;;;;;14.65;73.23;102042.19;10463346;28;20484;-82
2022/04/14 07:20:46;;;;;;;3.03;2.45;;;;;;;15.18;71.88;102034.09;10463109;28;20049;-80
2022/04/14 07:25:48;;;;;;;1.20;1.00;;;;;;;15.48;73.04;102028.78;10461075;28;20041;-80
2022/04/14 07:30:50;;;;;;;4.63;2.03;;;;;;;15.86;68.53;102031.41;10461106;28;20052;-80
2022/04/14 07:35:52;;;;;;;14.10;8.50;;;;;;;15.62;69.55;102026.50;10460708;28;20045;-80
2022/04/14 07:40:56;;;;;;;10.80;6.03;;;;;;;16.01;68.69;102027.38;10461566;28;20049;-79
2022/04/14 07:46:19;;;;;;;6.88;3.58;;;;;;;16.94;64.37;102026.59;10459195;28;20045;-79
2022/04/14 07:51:21;;;;;;;0.30;0.30;;;;;;;17.90;61.35;102025.47;10460230;28;20148;-79
2022/04/14 07:56:22;;;;;;;4.47;2.08;;;;;;;16.92;65.27;102036.06;10460318;28;20056;-81
2022/04/14 08:01:24;;;;;;;4.90;3.25;;;;;;;17.65;63.92;102040.75;10459562;28;20581;-80
2022/04/14 08:06:29;;;;;;;7.97;4.05;;;;;;;17.92;58.23;102044.59;10443036;28;20060;-79
2022/04/14 08:11:30;;;;;;;1.48;0.82;;;;;;;18.18;56.71;102044.09;10460375;28;20044;-80
2022/04/14 08:16:32;;;;;;;0.38;0.38;;;;;;;18.65;56.28;102043.75;10460295;28;20511;-80
2022/04/14 08:21:34;;;;;;;5.68;3.53;;;;;;;18.73;54.15;102045.59;10442319;28;20044;-80
2022/04/14 08:26:35;;;;;;;0.55;0.55;;;;;;;18.42;55.46;102047.88;10458555;28;20045;-79
2022/04/14 08:31:40;;;;;;;4.38;2.47;;;;;;;18.68;52.87;102046.41;10441823;28;20087;-80
2022/04/14 08:36:42;;;;;;;4.82;2.05;;;;;;;18.90;53.67;102046.63;10459266;28;20041;-79
2022/04/14 08:41:48;;;;;;;8.27;4.22;;;;;;;19.04;51.77;102049.41;10457829;28;20041;-80
2022/04/14 08:46:51;;;;;;;0.25;0.25;;;;;;;18.98;52.27;102055.44;10458989;28;20076;-80
2022/04/14 08:51:55;;;;;;;8.07;4.30;;;;;;;18.58;53.28;102055.00;10457262;28;20055;-79
2022/04/14 08:56:58;;;;;;;1.08;0.30;;;;;;;20.36;49.12;102042.41;10440920;28;20044;-79
2022/04/14 09:02:04;;;;;;;0.17;0.17;;;;;;;20.40;49.22;102034.53;10457092;28;20059;-80
2022/04/14 09:07:05;;;;;;;2.60;1.08;;;;;;;20.46;48.17;102033.69;10440283;28;20463;-79
2022/04/14 09:12:08;;;;;;;0.30;0.25;;;;;;;21.31;47.83;102027.69;10440250;28;20072;-79
2022/04/14 09:17:09;;;;;;;0.20;0.10;;;;;;;21.67;48.36;102018.03;10456569;28;20132;-79
2022/04/14 09:22:13;;;;;;;0.20;0.20;;;;;;;22.13;46.00;102031.00;10457463;28;20053;-80
2022/04/14 09:27:32;;;;;;;0.73;0.20;;;;;;;20.82;47.87;102025.94;10457435;28;20060;-79
2022/04/14 09:32:44;;;;;;;0.00;0.00;;;;;;;20.83;46.66;102028.53;10456003;28;20048;-80
2022/04/14 09:37:59;;;;;;;0.00;0.00;;;;;;;21.09;49.19;102017.22;10439407;28;20139;-79
2022/04/14 09:43:00;;;;;;;1.02;0.70;;;;;;;21.00;48.09;102022.44;10439109;28;20500;-80
2022/04/14 09:48:09;;;;;;;0.22;0.20;;;;;;;19.90;48.74;102028.25;10456337;28;20369;-79
2022/04/14 09:53:12;;;;;;;0.17;0.17;;;;;;;20.73;50.08;102016.34;10455607;28;20060;-80
2022/04/14 09:58:16;;;;;;;0.00;0.00;;;;;;;20.88;46.78;102016.34;10455234;28;20044;-79
2022/04/14 10:03:18;;;;;;;0.80;0.20;;;;;;;20.75;44.43;102010.22;10455936;28;20091;-79
2022/04/14 10:08:22;;;;;;;0.75;0.52;;;;;;;21.19;45.53;102008.47;10457672;28;20084;-80
2022/04/14 10:13:36;;;;;;;0.28;0.25;;;;;;;21.49;45.89;102003.19;10464943;28;20095;-78
2022/04/14 10:18:38;;;;;;;0.05;0.05;;;;;;;22.21;44.23;101998.59;10463734;28;20041;-78
2022/04/14 10:23:41;;;;;;;0.52;0.52;;;;;;;21.10;44.95;102010.22;10463167;28;20045;-79
2022/04/14 10:28:44;;;;;;;0.00;0.00;;;;;;;21.59;42.38;102015.44;10464357;28;20048;-77
2022/04/14 10:33:47;;;;;;;4.22;0.63;;;;;;;21.24;44.91;102014.59;10427085;28;20496;-79
2022/04/14 10:38:50;;;;;;;0.10;0.10;;;;;;;21.13;43.71;102028.56;10405758;28;20076;-78
2022/04/14 10:43:51;;;;;;;0.03;0.03;;;;;;;21.99;43.62;102022.31;10421402;28;20073;-78
2022/04/14 10:49:10;;;;;;;0.85;0.63;;;;;;;20.69;45.45;102027.63;10421087;28;20045;-78
2022/04/14 10:54:15;;;;;;;0.00;0.00;;;;;;;22.14;45.62;102014.38;10420917;28;20072;-78
2022/04/14 10:59:19;;;;;;;0.60;0.50;;;;;;;20.84;45.79;102025.06;10420671;28;20050;-78
2022/04/14 11:04:24;;;;;;;0.70;0.68;;;;;;;21.90;42.96;102031.06;10404095;28;20057;-79
2022/04/14 11:09:38;;;;;;;0.13;0.13;;;;;;;21.69;45.93;102032.88;10403841;28;20083;-79
2022/04/14 11:14:44;;;;;;;0.00;0.00;;;;;;;22.98;42.72;102025.25;10421410;28;20457;-78
2022/04/14 11:19:46;;;;;;;1.48;0.65;;;;;;;23.33;42.42;102010.06;10419900;28;20116;-78
2022/04/14 11:24:47;;;;;;;0.00;0.00;;;;;;;22.51;43.00;102023.81;10420961;28;20124;-78
2022/04/14 11:30:03;;;;;;;0.57;0.32;;;;;;;22.46;42.23;102021.22;10419283;28;20046;-78
2022/04/14 11:35:13;;;;;;;6.47;2.70;;;;;;;22.11;42.84;102009.13;10419154;28;20049;-79
2022/04/14 11:40:23;;;;;;;0.45;0.43;;;;;;;21.71;45.18;102010.16;10419157;28;20451;-78
2022/04/14 11:45:26;;;;;;;0.60;0.20;;;;;;;21.00;45.68;102015.44;10420389;28;20045;-78
2022/04/14 11:50:29;;;;;;;0.00;0.00;;;;;;;20.58;46.04;102007.56;10419642;28;20038;-78
2022/04/14 11:55:39;;;;;;;0.00;0.00;;;;;;;20.54;47.42;102016.25;10418485;28;20151;-77
2022/04/14 12:00:44;;;;;;;0.10;0.10;;;;;;;20.22;47.31;102024.88;10418688;28;20053;-78
2022/04/14 12:05:50;;;;;;;0.00;0.00;;;;;;;20.54;49.47;102021.50;10419741;28;20124;-78
2022/04/14 12:10:52;;;;;;;0.00;0.00;;;;;;;20.55;47.20;102012.78;10435680;28;20125;-77
2022/04/14 12:16:08;;;;;;;0.00;0.00;;;;;;;20.51;47.48;102016.28;10419250;28;20042;-78
2022/04/14 12:21:27;;;;;;;0.00;0.00;;;;;;;20.72;47.16;102019.78;10418980;28;20045;-77
2022/04/14 12:26:29;;;;;;;0.00;0.00;;;;;;;20.71;46.58;102020.66;10419685;28;20140;-77
2022/04/14 12:31:31;;;;;;;0.00;0.00;;;;;;;20.71;47.69;102023.28;10418175;28;20046;-78
2022/04/14 12:36:38;;;;;;;0.00;0.00;;;;;;;20.45;46.96;102017.13;10419949;28;20041;-78
2022/04/14 12:41:39;;;;;;;0.00;0.00;;;;;;;19.99;47.95;102030.03;10459187;28;20049;-76
2022/04/14 12:46:49;;;;;;;0.00;0.00;;;;;;;19.72;50.64;102035.94;10458182;28;20053;-77
2022/04/14 12:51:57;;;;;;;0.38;0.35;;;;;;;19.64;49.26;102042.00;10457805;28;20044;-78
2022/04/14 12:57:00;;;;;;;0.00;0.00;;;;;;;20.14;49.72;102034.47;10440869;28;20132;-78
2022/04/14 13:02:02;;;;;;;0.22;0.13;;;;;;;20.38;48.13;102032.78;10458471;28;20052;-78
2022/04/14 13:07:12;;;;;;;0.00;0.00;;;;;;;21.97;43.62;102016.19;10458216;28;20072;-77
2022/04/14 13:12:41;;;;;;;0.00;0.00;;;;;;;21.37;42.49;102019.81;10457017;28;20065;-77
2022/04/14 13:17:43;;;;;;;0.00;0.00;;;;;;;20.85;45.35;102011.09;10456762;28;20041;-77
2022/04/14 13:22:51;;;;;;;0.35;0.32;;;;;;;20.01;47.47;102016.94;10458025;28;20044;-76
2022/04/14 13:27:56;;;;;;;0.10;0.10;;;;;;;20.28;45.90;102019.69;10457310;28;20477;-77
2022/04/14 13:32:58;;;;;;;0.00;0.00;;;;;;;20.07;48.35;102019.59;10457960;28;20052;-77
2022/04/14 13:38:00;;;;;;;0.00;0.00;;;;;;;20.34;46.64;102033.66;10457169;28;20053;-76
2022/04/14 13:43:05;;;;;;;0.08;0.08;;;;;;;20.19;44.76;102029.22;10430782;28;20068;-77
2022/04/14 13:48:07;;;;;;;0.00;0.00;;;;;;;20.91;43.06;102032.06;10414494;28;20053;-78
2022/04/14 13:53:10;;;;;;;0.00;0.00;;;;;;;20.86;42.76;102038.16;10415851;28;20045;-77
2022/04/14 13:58:12;;;;;;;0.00;0.00;;;;;;;19.71;47.05;102029.88;10415514;28;20042;-77
2022/04/14 14:03:15;;;;;;;0.20;0.20;;;;;;;20.66;43.46;102030.25;10414156;28;20400;-77
2022/04/14 14:08:18;;;;;;;0.03;0.03;;;;;;;20.94;42.61;102022.47;10415221;28;20080;-77
2022/04/14 14:13:20;;;;;;;0.00;0.00;;;;;;;21.06;42.59;102027.69;10415222;28;20083;-77
2022/04/14 14:18:21;;;;;;;0.20;0.20;;;;;;;20.95;42.57;102032.06;10415023;28;20042;-77
2022/04/14 14:23:23;;;;;;;0.90;0.47;;;;;;;20.92;42.85;102033.81;10413787;28;20073;-77
2022/04/14 14:28:25;;;;;;;0.00;0.00;;;;;;;21.29;40.73;102021.56;10414895;28;20072;-77
2022/04/14 14:33:26;;;;;;;0.00;0.00;;;;;;;21.14;40.98;102022.47;10414807;28;20044;-78
2022/04/14 14:38:30;;;;;;;0.00;0.00;;;;;;;20.54;44.00;102021.50;10413105;28;20445;-77
2022/04/14 14:43:33;;;;;;;0.00;0.00;;;;;;;20.39;44.28;102029.31;10424771;28;20088;-77
2022/04/14 14:48:37;;;;;;;0.00;0.00;;;;;;;20.46;44.83;102025.84;10415316;28;20037;-77
2022/04/14 14:53:38;;;;;;;0.00;0.00;;;;;;;19.95;46.15;102034.38;10415645;28;20404;-77
2022/04/14 15:04:04;;;;;;;0.00;0.00;;;;;;;20.27;44.74;102043.22;10422308;28;20073;-77
2022/04/14 15:09:06;;;;;;;0.10;0.10;;;;;;;20.49;43.30;102041.56;10421257;28;20037;-76
2022/04/14 15:14:10;;;;;;;0.50;0.50;;;;;;;21.05;41.37;102034.69;10421608;28;20045;-77
2022/04/14 15:19:11;;;;;;;1.17;1.17;;;;;;;20.45;42.20;102042.41;10420443;28;20121;-78
2022/04/14 15:24:13;;;;;;;2.17;1.00;;;;;;;19.41;44.82;102043.59;10419095;28;20057;-76
2022/04/14 15:29:15;;;;;;;1.13;0.77;;;;;;;19.18;45.66;102044.28;10420636;28;20092;-77
2022/04/14 15:34:17;;;;;;;0.20;0.20;;;;;;;19.05;47.71;102050.25;10427666;28;20076;-76
2022/04/14 15:39:19;;;;;;;3.03;1.88;;;;;;;18.55;48.58;102060.19;10418967;28;20081;-75
2022/04/14 15:44:20;;;;;;;3.42;1.88;;;;;;;18.61;49.01;102057.66;10419738;28;20496;-76
2022/04/14 15:49:22;;;;;;;0.20;0.20;;;;;;;18.88;50.68;102069.22;10422442;28;20065;-77
2022/04/14 15:54:36;;;;;;;0.00;0.00;;;;;;;18.85;51.26;102069.22;10461409;28;20510;-75
2022/04/14 15:59:39;;;;;;;0.40;0.22;;;;;;;18.83;51.26;102070.91;10462097;28;20073;-76
2022/04/14 16:04:41;;;;;;;1.45;0.77;;;;;;;18.79;50.76;102069.16;10459824;28;20103;-77
2022/04/14 16:15:06;;;;;;;0.00;0.00;;;;;;;18.47;49.24;102078.34;10419455;28;20041;-76
2022/04/14 16:20:08;;;;;;;0.00;0.00;;;;;;;18.66;48.92;102074.22;10417605;28;20144;-76
2022/04/14 16:25:09;;;;;;;0.43;0.43;;;;;;;18.52;49.28;102081.03;10418835;28;20432;-77
2022/04/14 16:30:13;;;;;;;0.00;0.00;;;;;;;18.69;48.32;102084.72;10418575;28;20092;-77
2022/04/14 16:35:15;;;;;;;0.47;0.35;;;;;;;18.86;47.95;102086.63;10418022;28;20446;-77
2022/04/14 16:40:16;;;;;;;0.05;0.05;;;;;;;18.57;45.73;102100.25;10441154;28;20088;-77
2022/04/14 16:45:18;;;;;;;0.65;0.40;;;;;;;18.01;47.09;102101.25;10424215;28;20084;-77
2022/04/14 16:50:35;;;;;;;0.98;0.98;;;;;;;17.67;47.97;102106.81;10425440;28;20457;-77
2022/04/14 16:55:37;;;;;;;0.50;0.45;;;;;;;17.76;47.23;102113.88;10407874;28;20040;-76
2022/04/14 17:00:39;;;;;;;0.00;0.00;;;;;;;18.08;48.43;102105.69;10431018;28;20049;-76
2022/04/14 17:05:41;;;;;;;2.22;1.23;;;;;;;17.72;48.52;102109.50;10404735;28;20042;-77
2022/04/14 17:10:42;;;;;;;0.50;0.50;;;;;;;17.50;48.29;102116.06;10415894;28;20511;-76
2022/04/14 17:15:44;;;;;;;0.30;0.28;;;;;;;17.36;49.38;102119.34;10439891;28;20110;-76
2022/04/14 17:20:46;;;;;;;0.10;0.10;;;;;;;17.69;49.96;102118.13;10438807;28;20076;-76
2022/04/14 17:25:48;;;;;;;0.00;0.00;;;;;;;17.24;50.35;102132.13;10455881;28;20148;-77
2022/04/14 17:30:49;;;;;;;0.00;0.00;;;;;;;17.74;48.82;102132.13;10456863;28;20087;-76
2022/04/14 17:35:51;;;;;;;0.00;0.00;;;;;;;17.83;49.24;102135.72;10447393;28;20052;-76
2022/04/14 17:40:53;;;;;;;0.00;0.00;;;;;;;17.55;49.40;102141.38;10432616;28;20068;-76
2022/04/14 17:45:54;;;;;;;0.00;0.00;;;;;;;17.76;49.89;102139.94;10456868;28;20504;-76
2022/04/14 17:50:56;;;;;;;0.00;0.00;;;;;;;17.71;49.43;102155.50;10455179;28;20037;-77
2022/04/14 17:55:58;;;;;;;0.00;0.00;;;;;;;17.52;49.76;102156.94;10456637;28;20083;-76
2022/04/14 18:01:00;;;;;;;0.00;0.00;;;;;;;18.27;47.89;102155.50;10455199;28;20049;-76
2022/04/14 18:06:01;;;;;;;0.00;0.00;;;;;;;17.91;47.74;102152.34;10456464;28;20485;-76
2022/04/14 18:11:03;;;;;;;0.00;0.00;;;;;;;17.04;51.07;102161.28;10455068;28;20099;-76
2022/04/14 18:16:04;;;;;;;0.38;0.10;;;;;;;15.68;52.08;102166.03;10455270;28;20052;-77
2022/04/14 18:21:07;;;;;;;1.17;0.90;;;;;;;16.06;52.62;102173.91;10397061;28;20137;-76
2022/04/14 18:26:09;;;;;;;0.00;0.00;;;;;;;16.04;53.57;102165.22;10413443;28;20045;-75
2022/04/14 18:31:11;;;;;;;0.10;0.10;;;;;;;16.01;53.68;102188.53;10418782;28;20045;-75
2022/04/14 18:36:12;;;;;;;0.00;0.00;;;;;;;15.83;54.23;102189.84;10422748;28;20076;-76
2022/04/14 18:41:14;;;;;;;0.30;0.30;;;;;;;15.76;54.50;102200.88;10420981;28;20552;-76
2022/04/14 18:46:16;;;;;;;0.00;0.00;;;;;;;15.96;53.92;102210.94;10457702;28;20131;-76
2022/04/14 18:51:17;;;;;;;0.00;0.00;;;;;;;16.03;53.78;102212.84;10457371;28;20132;-77
2022/04/14 18:56:19;;;;;;;0.00;0.00;;;;;;;16.11;53.32;102220.81;10421131;28;20053;-77
2022/04/14 19:01:20;;;;;;;0.00;0.00;;;;;;;16.22;52.82;102226.28;10453349;28;20068;-77
2022/04/14 19:06:22;;;;;;;0.00;0.00;;;;;;;15.95;53.06;102230.84;10461733;28;20056;-77
2022/04/14 19:11:24;;;;;;;0.00;0.00;;;;;;;15.94;53.59;102230.81;10462717;28;20053;-76
2022/04/14 19:16:25;;;;;;;0.00;0.00;;;;;;;14.60;57.89;102237.47;10459246;28;20064;-76
2022/04/14 19:21:27;;;;;;;0.00;0.00;;;;;;;14.22;58.23;102244.94;10420099;28;20041;-76
2022/04/14 19:26:30;;;;;;;0.00;0.00;;;;;;;15.20;55.86;102238.38;10420854;28;20404;-76
2022/04/14 19:31:32;;;;;;;0.00;0.00;;;;;;;15.18;55.79;102250.44;10403089;28;20077;-77
2022/04/14 19:36:33;;;;;;;0.00;0.00;;;;;;;15.12;56.54;102258.06;10419442;28;20045;-77
2022/04/14 19:41:35;;;;;;;0.00;0.00;;;;;;;15.12;56.26;102258.06;10419399;28;20500;-76
2022/04/14 19:46:38;;;;;;;0.00;0.00;;;;;;;14.79;57.17;102271.78;10418704;28;20567;-76
2022/04/14 19:51:39;;;;;;;0.00;0.00;;;;;;;14.34;58.19;102274.66;10418812;28;20084;-77
2022/04/14 19:56:41;;;;;;;0.00;0.00;;;;;;;13.93;58.27;102280.22;10419158;28;20038;-76
2022/04/14 20:01:43;;;;;;;0.00;0.00;;;;;;;13.66;59.40;102285.34;10418386;28;20049;-77
2022/04/14 20:06:45;;;;;;;0.00;0.00;;;;;;;14.05;57.94;102284.94;10418168;28;20077;-76
2022/04/14 20:11:49;;;;;;;0.00;0.00;;;;;;;14.00;58.60;102283.91;10419248;28;20038;-76
2022/04/14 20:16:53;;;;;;;0.00;0.00;;;;;;;13.93;59.99;102288.91;10417580;28;20140;-76
2022/04/14 20:21:55;;;;;;;0.00;0.00;;;;;;;13.73;60.43;102289.91;10417500;28;20563;-76
2022/04/14 20:26:57;;;;;;;0.00;0.00;;;;;;;13.80;60.24;102297.06;10455994;28;20052;-76
2022/04/14 20:31:58;;;;;;;0.00;0.00;;;;;;;13.63;60.98;102299.94;10459575;28;20045;-76
2022/04/14 20:37:00;;;;;;;0.00;0.00;;;;;;;13.68;60.55;102300.13;10458089;28;20076;-76
2022/04/14 20:42:05;;;;;;;0.00;0.00;;;;;;;14.11;59.36;102298.13;10458065;28;20068;-76
2022/04/14 20:47:06;;;;;;;0.00;0.00;;;;;;;14.28;57.97;102303.88;10458981;28;20052;-76
2022/04/14 20:52:08;;;;;;;0.00;0.00;;;;;;;13.97;58.96;102310.59;10457652;28;20049;-75
2022/04/14 20:57:10;;;;;;;0.00;0.00;;;;;;;13.74;58.59;102307.19;10458730;28;20493;-76
2022/04/14 21:02:12;;;;;;;0.00;0.00;;;;;;;13.27;59.20;102321.03;10458488;28;20120;-76
2022/04/14 21:07:13;;;;;;;0.00;0.00;;;;;;;12.34;63.78;102338.09;10457020;28;20087;-76
2022/04/14 21:12:15;;;;;;;0.00;0.00;;;;;;;12.91;62.16;102326.59;10456992;28;20083;-76
2022/04/14 21:17:17;;;;;;;0.00;0.00;;;;;;;12.98;61.43;102338.03;10458018;28;20527;-75
2022/04/14 21:22:18;;;;;;;0.00;0.00;;;;;;;12.46;63.13;102342.00;10457860;28;20060;-75
2022/04/14 21:27:20;;;;;;;0.00;0.00;;;;;;;12.30;64.29;102346.53;10457484;28;20095;-75
2022/04/14 21:32:21;;;;;;;0.00;0.00;;;;;;;12.41;62.46;102348.66;10457478;28;20131;-77
2022/04/14 21:37:23;;;;;;;0.00;0.00;;;;;;;11.38;66.44;102349.41;10457270;28;20448;-77
2022/04/14 21:42:26;;;;;;;0.00;0.00;;;;;;;11.29;67.53;102354.13;10455936;28;20041;-77
2022/04/14 21:47:27;;;;;;;0.00;0.00;;;;;;;11.30;66.56;102355.91;10439208;28;20051;-76
2022/04/14 21:52:32;;;;;;;0.00;0.00;;;;;;;11.04;68.21;102365.91;10455737;28;20067;-77
2022/04/14 21:57:33;;;;;;;0.00;0.00;;;;;;;11.07;67.92;102366.03;10456854;28;20065;-77
2022/04/14 22:02:35;;;;;;;0.00;0.00;;;;;;;11.71;65.49;102363.75;10434707;28;20635;-76
2022/04/14 22:07:37;;;;;;;0.00;0.00;;;;;;;11.58;64.41;102363.22;10413720;28;20378;-77
2022/04/14 22:12:38;;;;;;;0.00;0.00;;;;;;;11.18;64.44;102363.09;10415270;28;20108;-77
2022/04/14 22:17:40;;;;;;;0.00;0.00;;;;;;;10.99;64.73;102377.66;10398466;28;20054;-77
2022/04/14 22:22:42;;;;;;;0.00;0.00;;;;;;;11.04;67.46;102373.63;10413854;28;20049;-76
2022/04/14 22:27:43;;;;;;;0.00;0.00;;;;;;;11.36;67.92;102381.97;10415008;28;20095;-77
2022/04/14 22:32:45;;;;;;;0.00;0.00;;;;;;;11.49;67.94;102390.31;10413918;28;20500;-77
2022/04/14 22:37:47;;;;;;;0.00;0.00;;;;;;;11.67;67.59;102388.56;10414752;28;20095;-78
2022/04/14 22:42:48;;;;;;;0.00;0.00;;;;;;;11.10;68.52;102399.72;10397299;28;20056;-77
2022/04/14 22:47:50;;;;;;;0.00;0.00;;;;;;;11.25;66.36;102394.38;10414347;28;20077;-78
2022/04/14 22:52:52;;;;;;;0.00;0.00;;;;;;;11.50;68.62;102397.25;10413437;28;20536;-77
2022/04/14 22:57:55;;;;;;;0.00;0.00;;;;;;;11.49;68.19;102393.75;10413138;28;20045;-77
2022/04/14 23:02:56;;;;;;;0.00;0.00;;;;;;;11.37;68.80;102395.78;10414790;28;20068;-77
2022/04/14 23:07:58;;;;;;;0.00;0.00;;;;;;;11.67;67.92;102391.13;10414234;28;20038;-77
2022/04/14 23:13:00;;;;;;;0.00;0.00;;;;;;;11.59;68.23;102397.63;10412728;28;20198;-77
2022/04/14 23:18:02;;;;;;;0.00;0.00;;;;;;;11.40;68.24;102401.06;10418713;28;20512;-76
2022/04/14 23:23:04;;;;;;;0.00;0.00;;;;;;;11.32;68.54;102395.56;10421192;28;20073;-76